Time;durP1;ratioP1;P1;durP2;ratioP2;P2;SDS_P1;SDS_P2;PMS_P1;PMS_P2;Temp;Humidity;BMP_temperature;BMP_pressure;BME280_temperature;BME280_humidity;BME280_pressure;Samples;Min_cycle;Max_cycle;Signal;HPM_P1;HPM_P2
2021/07/28 02:20:52;;;;;;;38.17;35.87;;;19.50;99.90;;;;;;5062040;23;20916;-69
2021/07/28 02:23:18;;;;;;;38.17;35.87;;;19.40;99.90;;;;;;5030343;28;20492;-70
2021/07/28 02:25:45;;;;;;;36.87;34.57;;;19.40;99.90;;;;;;5030458;28;20448;-71
2021/07/28 02:28:12;;;;;;;38.33;35.90;;;19.40;99.90;;;;;;5022579;28;20461;-71
2021/07/28 02:30:38;;;;;;;36.90;34.73;;;19.30;99.90;;;;;;5011333;28;20462;-70
2021/07/28 02:33:05;;;;;;;37.33;35.03;;;19.30;99.90;;;;;;5013179;28;20462;-71
2021/07/28 02:35:31;;;;;;;35.70;33.50;;;19.20;99.90;;;;;;5019343;28;20480;-71
2021/07/28 02:37:59;;;;;;;38.20;35.43;;;19.10;99.90;;;;;;5010959;28;20446;-71
2021/07/28 02:40:26;;;;;;;36.80;34.60;;;19.10;99.90;;;;;;5010606;28;20573;-71
2021/07/28 02:42:53;;;;;;;35.30;33.30;;;19.20;99.90;;;;;;5010954;28;20490;-71
2021/07/28 02:45:19;;;;;;;39.03;36.30;;;19.10;99.90;;;;;;5011025;28;20458;-70
2021/07/28 02:47:46;;;;;;;36.70;34.23;;;19.00;99.90;;;;;;5010767;28;20484;-72
2021/07/28 02:50:13;;;;;;;37.33;35.03;;;19.10;99.90;;;;;;5010753;28;20788;-71
2021/07/28 02:52:40;;;;;;;38.33;35.70;;;19.10;99.90;;;;;;5010433;28;20453;-71
2021/07/28 02:55:10;;;;;;;34.80;32.80;;;19.10;99.90;;;;;;5010732;28;20458;-71
2021/07/28 02:57:38;;;;;;;37.00;34.80;;;19.10;99.90;;;;;;5010639;28;20461;-70
2021/07/28 03:00:05;;;;;;;36.27;33.97;;;19.20;99.90;;;;;;5010667;28;20446;-70
2021/07/28 03:02:32;;;;;;;36.27;34.27;;;19.20;99.90;;;;;;5010639;28;20454;-70
2021/07/28 03:04:59;;;;;;;37.23;34.67;;;19.20;99.90;;;;;;5010576;28;20772;-71
2021/07/28 03:07:26;;;;;;;36.40;34.10;;;19.20;99.90;;;;;;5010192;28;20454;-71
2021/07/28 03:09:52;;;;;;;36.67;34.47;;;19.30;99.90;;;;;;5010242;28;20972;-70
2021/07/28 03:12:20;;;;;;;35.20;33.30;;;19.20;99.90;;;;;;5010570;28;20944;-70
2021/07/28 03:14:47;;;;;;;35.93;33.73;;;19.20;99.90;;;;;;5010606;28;20476;-70
2021/07/28 03:17:15;;;;;;;36.13;33.90;;;19.20;99.90;;;;;;5010191;28;20508;-69
2021/07/28 03:19:42;;;;;;;38.60;36.00;;;19.10;99.90;;;;;;5009893;28;20892;-69
2021/07/28 03:22:09;;;;;;;37.10;34.70;;;19.10;99.90;;;;;;5010389;28;20815;-69
2021/07/28 03:24:35;;;;;;;34.87;32.87;;;19.10;99.90;;;;;;5010541;28;20485;-70
2021/07/28 03:27:02;;;;;;;35.67;33.47;;;19.00;99.90;;;;;;5010600;28;20477;-69
2021/07/28 03:29:30;;;;;;;36.00;33.70;;;18.90;99.90;;;;;;5010529;28;20565;-69
2021/07/28 03:31:57;;;;;;;38.00;35.43;;;19.00;99.90;;;;;;5011832;28;20544;-69
2021/07/28 03:34:24;;;;;;;36.40;33.77;;;18.90;99.90;;;;;;5017108;28;20462;-69
2021/07/28 03:36:52;;;;;;;36.13;33.87;;;18.90;99.90;;;;;;5021732;28;20449;-69
2021/07/28 03:39:19;;;;;;;35.03;32.63;;;18.80;99.90;;;;;;5014676;28;20457;-69
2021/07/28 03:41:45;;;;;;;32.33;30.53;;;18.90;99.90;;;;;;5013893;28;20454;-69
2021/07/28 03:44:12;;;;;;;30.90;29.30;;;18.90;99.90;;;;;;5013920;28;20486;-70
2021/07/28 03:46:40;;;;;;;31.87;30.07;;;18.90;99.90;;;;;;5013891;28;20480;-70
2021/07/28 03:49:06;;;;;;;30.93;29.13;;;19.00;99.90;;;;;;5013748;28;20817;-69
2021/07/28 03:51:33;;;;;;;29.80;28.27;;;19.00;99.90;;;;;;5014020;28;20818;-71
2021/07/28 03:54:00;;;;;;;30.60;29.00;;;19.00;99.90;;;;;;5013800;28;20458;-71
2021/07/28 03:56:27;;;;;;;28.80;27.30;;;18.90;99.90;;;;;;5013709;28;20449;-70
2021/07/28 03:58:56;;;;;;;29.23;27.73;;;18.90;99.90;;;;;;5013791;28;20454;-71
2021/07/28 04:01:22;;;;;;;29.00;27.40;;;18.90;99.90;;;;;;5013606;28;20493;-72
2021/07/28 04:03:52;;;;;;;28.80;26.97;;;19.00;99.90;;;;;;5013609;28;20993;-72
2021/07/28 04:06:19;;;;;;;27.23;25.77;;;19.00;99.90;;;;;;5013945;28;20458;-71
2021/07/28 04:08:46;;;;;;;26.60;24.73;;;19.00;99.90;;;;;;5013450;28;20450;-71
2021/07/28 04:11:12;;;;;;;26.53;25.03;;;19.00;99.90;;;;;;5013483;28;20515;-70
2021/07/28 04:13:39;;;;;;;25.50;24.20;;;19.00;99.90;;;;;;5013615;28;20449;-72
2021/07/28 04:16:06;;;;;;;26.47;24.87;;;19.00;99.90;;;;;;5013326;28;20460;-71
2021/07/28 04:18:33;;;;;;;26.40;24.90;;;19.00;99.90;;;;;;5013488;28;20516;-72
2021/07/28 04:21:01;;;;;;;26.10;24.70;;;19.10;99.90;;;;;;5013255;28;20485;-72
2021/07/28 04:23:28;;;;;;;25.50;24.00;;;19.10;99.90;;;;;;5013260;28;20490;-72
2021/07/28 04:25:54;;;;;;;24.97;23.50;;;19.20;99.90;;;;;;5013245;28;20472;-72
2021/07/28 04:28:21;;;;;;;24.30;23.00;;;19.30;99.90;;;;;;5013521;28;20477;-72
2021/07/28 04:30:47;;;;;;;24.83;23.53;;;19.40;99.90;;;;;;5013307;28;20452;-70
2021/07/28 04:33:14;;;;;;;25.00;23.50;;;19.50;99.90;;;;;;5013164;28;20455;-71
2021/07/28 04:35:41;;;;;;;25.30;23.70;;;19.50;99.90;;;;;;5017375;28;20811;-72
2021/07/28 04:38:09;;;;;;;25.53;23.83;;;19.60;99.90;;;;;;5019293;28;20458;-71
2021/07/28 04:40:36;;;;;;;25.80;23.80;;;19.70;99.90;;;;;;5013136;28;20456;-71
2021/07/28 04:43:02;;;;;;;24.90;23.20;;;19.70;99.90;;;;;;5012655;28;20449;-71
2021/07/28 04:45:29;;;;;;;26.90;24.93;;;19.70;99.90;;;;;;5012793;28;20451;-71
2021/07/28 04:47:56;;;;;;;24.20;22.80;;;19.80;99.90;;;;;;5012842;28;20449;-71
2021/07/28 04:50:22;;;;;;;23.17;21.67;;;19.80;99.90;;;;;;5012896;28;20453;-71
2021/07/28 04:52:49;;;;;;;24.50;22.87;;;19.80;99.90;;;;;;5013008;28;20449;-71
2021/07/28 04:55:17;;;;;;;24.00;22.50;;;19.70;99.90;;;;;;5012658;28;20454;-72
2021/07/28 04:57:44;;;;;;;23.30;21.77;;;19.90;99.90;;;;;;5014034;28;20509;-72
2021/07/28 05:00:11;;;;;;;24.90;23.03;;;20.00;99.90;;;;;;5015902;28;20441;-73
2021/07/28 05:02:38;;;;;;;24.60;23.10;;;20.10;99.90;;;;;;5013951;28;20985;-72
2021/07/28 05:05:05;;;;;;;26.37;24.50;;;20.10;99.90;;;;;;5012665;28;20850;-73
2021/07/28 05:07:32;;;;;;;25.70;23.83;;;20.20;99.90;;;;;;5012736;28;20450;-72
2021/07/28 05:09:59;;;;;;;23.90;22.33;;;20.10;99.90;;;;;;5012371;28;20512;-72
2021/07/28 05:12:27;;;;;;;24.33;22.90;;;20.20;99.90;;;;;;5012654;28;20461;-72
2021/07/28 05:14:55;;;;;;;23.17;21.87;;;20.30;99.90;;;;;;5012496;28;20466;-72
2021/07/28 05:17:23;;;;;;;22.60;21.20;;;20.30;99.90;;;;;;5012510;28;20516;-72
2021/07/28 05:19:50;;;;;;;21.90;20.70;;;20.40;99.90;;;;;;5011975;28;20488;-71
2021/07/28 05:22:17;;;;;;;22.47;21.13;;;20.40;99.90;;;;;;5012605;28;20454;-73
2021/07/28 05:24:44;;;;;;;22.37;20.97;;;20.50;99.90;;;;;;5012142;28;21034;-70
2021/07/28 05:27:10;;;;;;;23.10;21.70;;;20.50;99.90;;;;;;5012110;28;20450;-72
2021/07/28 05:29:38;;;;;;;22.50;21.17;;;20.60;99.90;;;;;;5012246;28;20452;-71
2021/07/28 05:32:06;;;;;;;24.03;22.33;;;20.50;99.90;;;;;;5012406;28;20450;-72
2021/07/28 05:34:32;;;;;;;22.63;21.33;;;20.60;99.90;;;;;;5011968;28;20855;-71
2021/07/28 05:36:59;;;;;;;22.83;21.43;;;20.60;99.90;;;;;;5011716;28;20946;-71
2021/07/28 05:39:26;;;;;;;23.17;21.70;;;20.70;99.90;;;;;;5011906;28;20486;-71
2021/07/28 05:41:52;;;;;;;43.00;24.93;;;20.60;99.90;;;;;;5011599;28;20452;-71
2021/07/28 05:44:19;;;;;;;22.53;21.07;;;20.70;99.90;;;;;;5011876;28;20482;-71
2021/07/28 05:46:47;;;;;;;21.90;20.60;;;20.90;99.90;;;;;;5011919;28;20454;-71
2021/07/28 05:49:14;;;;;;;22.20;20.90;;;20.90;99.90;;;;;;5011786;28;20461;-71
2021/07/28 05:51:40;;;;;;;22.33;20.93;;;21.10;99.90;;;;;;5011819;28;20458;-72
2021/07/28 05:54:07;;;;;;;21.00;19.80;;;21.10;99.90;;;;;;5011215;28;20465;-72
2021/07/28 05:56:34;;;;;;;22.30;20.90;;;21.20;99.90;;;;;;5011484;28;20553;-71
2021/07/28 05:59:00;;;;;;;21.53;20.33;;;21.40;99.90;;;;;;5012017;28;20454;-73
2021/07/28 06:01:27;;;;;;;21.60;20.30;;;21.30;99.90;;;;;;5011639;28;20453;-73
2021/07/28 06:03:55;;;;;;;22.50;21.10;;;21.40;99.90;;;;;;5011635;28;20532;-73
2021/07/28 06:06:25;;;;;;;22.40;21.20;;;21.40;99.90;;;;;;5011535;28;20454;-73
2021/07/28 06:08:52;;;;;;;23.23;21.73;;;21.40;99.90;;;;;;5011675;28;20449;-72
2021/07/28 06:11:19;;;;;;;21.50;20.20;;;21.40;99.90;;;;;;5011600;28;20460;-72
2021/07/28 06:13:45;;;;;;;23.80;22.50;;;21.50;99.90;;;;;;5011428;28;20452;-72
2021/07/28 06:16:12;;;;;;;23.80;22.40;;;21.60;99.90;;;;;;5011366;28;20457;-73
2021/07/28 06:18:39;;;;;;;23.50;22.20;;;21.50;99.90;;;;;;5011392;28;20477;-71
2021/07/28 06:21:07;;;;;;;23.13;21.73;;;21.60;99.90;;;;;;5011294;28;20489;-71
2021/07/28 06:23:33;;;;;;;21.13;19.93;;;21.60;99.90;;;;;;5011243;28;20453;-71
2021/07/28 06:26:00;;;;;;;20.40;19.20;;;21.60;99.90;;;;;;5011119;28;20449;-71
2021/07/28 06:28:27;;;;;;;18.43;17.50;;;21.70;99.90;;;;;;5011214;28;20442;-71
2021/07/28 06:30:54;;;;;;;17.30;16.30;;;21.80;99.90;;;;;;5011357;28;20450;-72
2021/07/28 06:33:22;;;;;;;20.97;19.77;;;21.90;99.90;;;;;;5010906;28;20449;-73
2021/07/28 06:35:49;;;;;;;19.57;18.30;;;21.80;99.90;;;;;;5010852;28;20945;-72
2021/07/28 06:38:17;;;;;;;18.80;17.60;;;21.70;99.90;;;;;;5010887;28;20481;-73
2021/07/28 06:40:46;;;;;;;17.67;16.60;;;21.50;99.90;;;;;;5010818;28;20933;-73
2021/07/28 06:43:14;;;;;;;18.00;17.10;;;21.40;99.90;;;;;;5010830;28;20457;-73
2021/07/28 06:45:41;;;;;;;21.13;20.10;;;21.30;99.90;;;;;;5010738;28;20895;-73
2021/07/28 06:48:08;;;;;;;21.70;20.60;;;21.00;99.90;;;;;;5010430;28;20497;-71
2021/07/28 06:50:35;;;;;;;22.30;21.00;;;20.90;99.90;;;;;;5010178;28;20449;-69
2021/07/28 06:53:02;;;;;;;22.60;21.50;;;20.70;99.90;;;;;;5010362;28;20785;-73
2021/07/28 06:55:30;;;;;;;24.90;23.50;;;20.50;99.90;;;;;;5010163;28;20442;-69
2021/07/28 06:57:57;;;;;;;27.27;25.87;;;20.40;99.90;;;;;;5010128;28;20456;-68
2021/07/28 07:00:23;;;;;;;30.63;28.87;;;20.30;99.90;;;;;;5009879;28;20449;-69
2021/07/28 07:02:50;;;;;;;33.97;32.27;;;20.30;99.90;;;;;;5009813;28;20457;-71
2021/07/28 07:05:17;;;;;;;38.90;36.77;;;20.20;99.90;;;;;;5010122;28;20488;-71
2021/07/28 07:07:47;;;;;;;40.87;38.67;;;20.10;99.90;;;;;;5009677;28;20509;-72
2021/07/28 07:10:14;;;;;;;42.20;39.80;;;20.00;99.90;;;;;;5010217;28;20500;-72
2021/07/28 07:12:42;;;;;;;42.40;40.20;;;20.00;99.90;;;;;;5010214;28;20454;-72
2021/07/28 07:15:09;;;;;;;40.07;38.00;;;19.90;99.90;;;;;;5010174;28;20938;-72
2021/07/28 07:17:36;;;;;;;36.30;34.60;;;19.80;99.90;;;;;;5009978;28;20469;-72
2021/07/28 07:20:03;;;;;;;36.10;34.20;;;19.70;99.90;;;;;;5010026;28;20543;-72
2021/07/28 07:22:30;;;;;;;33.80;32.10;;;19.60;99.90;;;;;;5010330;28;20461;-73
2021/07/28 07:24:57;;;;;;;32.53;30.83;;;19.40;99.90;;;;;;5009906;28;20498;-73
2021/07/28 07:27:24;;;;;;;30.50;28.90;;;19.50;99.90;;;;;;5009694;28;20453;-72
2021/07/28 07:29:52;;;;;;;26.57;25.07;;;19.50;99.90;;;;;;5010250;28;20454;-72
2021/07/28 07:32:22;;;;;;;26.63;25.23;;;19.40;99.90;;;;;;5010319;28;20450;-72
2021/07/28 07:34:49;;;;;;;26.37;25.00;;;19.50;99.90;;;;;;5010151;28;20934;-72
2021/07/28 07:37:16;;;;;;;24.33;23.13;;;19.50;99.90;;;;;;5009712;28;21060;-71
2021/07/28 07:39:42;;;;;;;25.23;23.93;;;19.60;99.90;;;;;;5009958;28;20956;-70
2021/07/28 07:42:09;;;;;;;23.63;22.40;;;19.70;99.90;;;;;;5009901;28;20945;-70
2021/07/28 07:44:36;;;;;;;23.50;22.30;;;19.80;99.90;;;;;;5009963;28;20481;-71
2021/07/28 07:47:04;;;;;;;21.63;20.53;;;20.10;99.90;;;;;;5010156;28;20472;-71
2021/07/28 07:49:30;;;;;;;19.30;18.40;;;20.40;99.90;;;;;;5009686;28;20449;-72
2021/07/28 07:51:57;;;;;;;20.30;19.07;;;20.50;99.90;;;;;;5010118;28;20453;-73
2021/07/28 07:54:24;;;;;;;20.70;19.70;;;20.60;99.90;;;;;;5010035;28;20455;-73
2021/07/28 07:56:51;;;;;;;21.30;19.97;;;20.70;99.90;;;;;;5010134;28;20461;-70
2021/07/28 07:59:17;;;;;;;21.33;20.00;;;20.70;99.90;;;;;;5010013;28;20450;-72
2021/07/28 08:01:44;;;;;;;21.20;20.00;;;20.60;99.90;;;;;;5009891;28;20457;-73
2021/07/28 08:04:12;;;;;;;21.77;20.37;;;20.60;99.90;;;;;;5009831;28;21024;-73
2021/07/28 08:06:39;;;;;;;20.17;19.10;;;20.40;99.90;;;;;;5009952;28;20453;-73
2021/07/28 08:09:05;;;;;;;20.30;19.20;;;20.30;99.90;;;;;;5009385;28;20449;-73
2021/07/28 08:11:32;;;;;;;20.30;19.17;;;20.30;99.90;;;;;;5019203;28;20454;-76
2021/07/28 08:13:59;;;;;;;19.70;18.73;;;20.30;99.90;;;;;;5009888;28;20442;-75
2021/07/28 08:16:25;;;;;;;20.17;19.07;;;20.20;99.90;;;;;;5009557;28;20718;-74
2021/07/28 08:18:52;;;;;;;20.67;19.20;;;20.10;99.90;;;;;;5012410;28;20477;-74
2021/07/28 08:21:20;;;;;;;20.77;19.43;;;20.10;99.90;;;;;;5012972;28;20853;-71
2021/07/28 08:23:48;;;;;;;20.77;19.67;;;20.00;99.90;;;;;;5013204;28;20556;-73
2021/07/28 08:26:16;;;;;;;19.57;18.50;;;20.00;99.90;;;;;;5012935;28;20513;-73
2021/07/28 08:28:44;;;;;;;20.17;19.07;;;19.80;99.90;;;;;;5010791;28;20825;-72
2021/07/28 08:31:11;;;;;;;18.97;17.87;;;19.80;99.90;;;;;;5011180;28;20454;-73
2021/07/28 08:33:38;;;;;;;18.13;17.23;;;19.80;99.90;;;;;;5023798;28;20465;-73
2021/07/28 08:36:05;;;;;;;18.87;17.87;;;19.70;99.90;;;;;;5019501;28;20445;-73
2021/07/28 08:38:33;;;;;;;22.53;20.73;;;19.90;99.90;;;;;;5033091;28;20832;-73
2021/07/28 08:41:01;;;;;;;19.00;17.90;;;19.90;99.90;;;;;;5021582;28;20454;-72
2021/07/28 08:43:29;;;;;;;19.47;18.37;;;20.00;99.90;;;;;;5013233;28;20878;-72
2021/07/28 08:45:58;;;;;;;18.53;17.53;;;20.00;99.90;;;;;;5013123;28;20588;-72
2021/07/28 08:48:25;;;;;;;19.77;18.47;;;20.00;99.90;;;;;;5015100;28;20446;-71
2021/07/28 08:50:53;;;;;;;18.37;17.37;;;20.00;99.90;;;;;;5032713;28;20507;-73
2021/07/28 08:53:20;;;;;;;19.83;18.70;;;20.20;99.90;;;;;;5033073;28;20846;-73
2021/07/28 08:55:49;;;;;;;19.77;18.30;;;20.40;99.90;;;;;;5032963;28;20452;-73
2021/07/28 08:58:17;;;;;;;18.37;17.17;;;20.50;99.90;;;;;;5032739;28;20956;-73
2021/07/28 09:00:45;;;;;;;17.30;16.30;;;20.70;99.90;;;;;;5032448;28;20944;-73
2021/07/28 09:03:12;;;;;;;18.03;16.50;;;20.90;99.90;;;;;;5019976;28;20487;-74
2021/07/28 09:05:40;;;;;;;17.10;16.20;;;21.20;99.90;;;;;;5010015;28;20502;-72
2021/07/28 09:08:07;;;;;;;18.10;17.00;;;21.40;99.90;;;;;;5012544;28;20795;-73
2021/07/28 09:10:34;;;;;;;16.90;16.10;;;21.40;99.90;;;;;;5012619;28;20446;-73
2021/07/28 09:13:02;;;;;;;17.63;16.73;;;21.40;99.90;;;;;;5012440;28;20662;-73
2021/07/28 09:15:38;;;;;;;16.47;15.67;;;21.40;99.90;;;;;;5030989;28;20449;-73
2021/07/28 09:18:30;;;;;;;17.53;16.47;;;22.00;99.90;;;;;;5032211;28;20473;-74
2021/07/28 09:20:57;;;;;;;17.10;16.20;;;22.10;99.90;;;;;;5032149;28;20500;-73
2021/07/28 09:23:33;;;;;;;16.20;15.40;;;22.50;99.90;;;;;;5018632;28;20453;-73
2021/07/28 09:26:00;;;;;;;16.70;15.43;;;22.70;99.90;;;;;;5012233;28;20489;-72
2021/07/28 09:28:28;;;;;;;17.43;16.43;;;22.80;99.90;;;;;;5011908;28;20450;-73
2021/07/28 09:30:55;;;;;;;15.97;15.17;;;22.70;99.90;;;;;;5018410;28;20469;-73
2021/07/28 09:33:22;;;;;;;15.73;14.93;;;22.60;99.90;;;;;;5031888;28;20453;-73
2021/07/28 09:36:17;;;;;;;16.63;15.43;;;22.80;99.90;;;;;;5032066;28;20795;-73
2021/07/28 09:38:45;;;;;;;16.30;15.40;;;22.90;99.90;;;;;;5031891;28;20456;-73
2021/07/28 09:41:18;;;;;;;16.63;15.73;;;23.00;99.90;;;;;;5012422;28;20500;-73
2021/07/28 09:43:48;;;;;;;16.70;15.70;;;23.30;99.90;;;;;;5012304;28;20871;-73
2021/07/28 09:46:37;;;;;;;16.40;15.50;;;22.80;99.90;;;;;;5012119;28;20493;-73
2021/07/28 09:49:06;;;;;;;16.03;14.97;;;22.80;99.90;;;;;;5007974;28;20941;-74
2021/07/28 09:51:37;;;;;;;17.23;16.13;;;23.00;99.90;;;;;;5011981;28;20453;-73
2021/07/28 09:54:06;;;;;;;17.67;16.57;;;22.60;99.90;;;;;;5012088;28;20525;-73
2021/07/28 09:56:40;;;;;;;15.57;14.77;;;22.80;99.90;;;;;;5011910;28;20441;-73
2021/07/28 09:59:08;;;;;;;16.20;15.30;;;23.00;99.90;;;;;;5011952;28;20456;-73
2021/07/28 10:01:36;;;;;;;15.83;14.93;;;23.10;99.90;;;;;;5011904;28;20454;-73
2021/07/28 10:04:06;;;;;;;16.43;15.63;;;23.40;99.90;;;;;;5011614;28;20457;-73
2021/07/28 10:06:38;;;;;;;16.90;15.90;;;23.90;99.90;;;;;;5011704;28;20485;-74
2021/07/28 10:09:08;;;;;;;16.37;15.47;;;24.40;99.90;;;;;;5011598;28;20454;-73
2021/07/28 10:11:36;;;;;;;15.30;14.50;;;25.20;99.90;;;;;;5011809;28;20482;-73
2021/07/28 10:14:04;;;;;;;16.47;15.57;;;25.00;99.90;;;;;;5020416;28;20480;-73
2021/07/28 10:16:33;;;;;;;15.70;14.80;;;25.10;99.90;;;;;;5031156;28;20448;-74
2021/07/28 10:19:02;;;;;;;15.30;14.60;;;24.30;99.90;;;;;;5030731;28;20476;-73
2021/07/28 10:21:32;;;;;;;14.93;14.33;;;23.70;99.90;;;;;;5031182;28;20437;-74
2021/07/28 10:23:59;;;;;;;15.93;14.93;;;23.50;99.90;;;;;;5031359;28;20476;-73
2021/07/28 10:26:26;;;;;;;14.90;14.20;;;23.80;99.90;;;;;;5031031;28;20836;-73
2021/07/28 10:28:54;;;;;;;16.30;15.50;;;23.90;99.90;;;;;;5030612;28;20461;-74
2021/07/28 10:31:22;;;;;;;15.93;15.13;;;24.00;99.90;;;;;;5031124;28;20453;-74
2021/07/28 10:33:51;;;;;;;15.20;14.40;;;24.50;99.90;;;;;;5030970;28;20514;-72
2021/07/28 10:36:19;;;;;;;15.63;14.93;;;25.00;99.90;;;;;;5031174;28;20449;-73
2021/07/28 10:38:54;;;;;;;16.00;15.20;;;25.00;99.90;;;;;;5030901;28;20448;-74
2021/07/28 10:41:48;;;;;;;15.73;15.03;;;24.90;99.90;;;;;;5030919;28;21062;-73
2021/07/28 10:44:17;;;;;;;14.80;14.00;;;24.90;99.90;;;;;;4995883;28;20457;-73
2021/07/28 10:47:20;;;;;;;15.17;14.47;;;24.90;99.90;;;;;;5030758;28;20489;-73
2021/07/28 10:49:49;;;;;;;16.40;15.60;;;24.90;99.90;;;;;;5011137;28;20449;-72
2021/07/28 10:52:47;;;;;;;14.70;14.10;;;24.40;99.90;;;;;;5010829;28;20446;-72
2021/07/28 10:55:17;;;;;;;16.13;14.93;;;24.00;99.90;;;;;;4950243;29;20892;-72
2021/07/28 10:58:20;;;;;;;15.77;14.57;;;24.10;99.90;;;;;;4998480;28;20458;-72
2021/07/28 11:01:02;;;;;;;15.13;14.03;;;24.40;99.90;;;;;;5010845;28;20495;-72
2021/07/28 11:03:36;;;;;;;15.80;15.00;;;25.10;99.90;;;;;;5008246;28;20497;-72
2021/07/28 11:06:23;;;;;;;15.70;14.80;;;25.20;99.90;;;;;;5010809;28;20991;-72
2021/07/28 11:08:50;;;;;;;16.27;15.30;;;25.40;99.90;;;;;;5010325;28;20552;-72
2021/07/28 11:11:23;;;;;;;15.47;14.60;;;25.70;99.90;;;;;;5010594;28;20450;-72
2021/07/28 11:13:50;;;;;;;16.23;15.23;;;25.80;99.50;;;;;;5010441;28;20485;-72
2021/07/28 11:16:17;;;;;;;16.50;15.70;;;25.20;99.90;;;;;;5010594;28;20441;-72
2021/07/28 11:18:45;;;;;;;15.90;15.00;;;24.80;99.90;;;;;;5010424;28;20477;-73
2021/07/28 11:21:17;;;;;;;15.60;14.80;;;25.60;99.90;;;;;;5010401;28;20576;-72
2021/07/28 11:23:56;;;;;;;16.30;15.40;;;26.30;99.00;;;;;;5010397;28;20941;-71
2021/07/28 11:26:25;;;;;;;15.30;14.33;;;26.00;98.40;;;;;;5010345;28;20556;-72
2021/07/28 11:28:57;;;;;;;15.43;14.73;;;26.00;98.40;;;;;;5010402;28;20456;-72
2021/07/28 11:31:27;;;;;;;16.43;15.43;;;25.90;98.70;;;;;;5010370;28;20453;-73
2021/07/28 11:34:09;;;;;;;15.43;14.60;;;25.80;98.90;;;;;;5010342;28;20804;-72
2021/07/28 11:36:36;;;;;;;17.40;16.60;;;26.30;98.60;;;;;;5010680;28;20481;-73
2021/07/28 11:39:16;;;;;;;16.87;15.97;;;27.10;97.00;;;;;;5010321;28;20458;-72
2021/07/28 11:41:45;;;;;;;16.57;15.33;;;27.60;96.00;;;;;;5010149;28;20484;-72
2021/07/28 11:44:12;;;;;;;15.87;14.93;;;27.50;95.40;;;;;;5009991;28;20458;-72
2021/07/28 11:46:38;;;;;;;16.63;15.67;;;26.90;95.50;;;;;;5009698;28;20497;-72
2021/07/28 11:49:06;;;;;;;16.53;15.70;;;27.00;96.20;;;;;;5009592;28;20490;-72
2021/07/28 11:51:35;;;;;;;16.37;15.57;;;27.10;96.50;;;;;;5010277;28;20451;-72
2021/07/28 11:54:10;;;;;;;16.70;15.80;;;28.10;94.60;;;;;;5013578;28;20974;-72
2021/07/28 11:56:44;;;;;;;16.23;15.43;;;28.20;93.80;;;;;;5013921;28;20456;-72
2021/07/28 11:59:11;;;;;;;16.03;15.33;;;27.40;95.00;;;;;;5013712;28;20956;-72
2021/07/28 12:01:48;;;;;;;16.80;15.80;;;26.90;95.70;;;;;;5013284;28;20508;-72
2021/07/28 12:04:18;;;;;;;16.70;15.90;;;27.20;95.80;;;;;;5013434;28;20479;-72
2021/07/28 12:06:45;;;;;;;16.57;15.67;;;27.60;95.10;;;;;;5013082;28;20489;-72
2021/07/28 12:09:16;;;;;;;16.27;15.57;;;28.30;93.90;;;;;;5011609;28;20485;-72
2021/07/28 12:12:02;;;;;;;15.87;14.93;;;28.40;93.00;;;;;;5013420;28;20445;-72
2021/07/28 12:14:32;;;;;;;16.00;15.27;;;27.80;93.60;;;;;;5013233;28;20442;-72
2021/07/28 12:17:00;;;;;;;16.63;15.47;;;27.20;94.10;;;;;;5013102;28;20441;-72
2021/07/28 12:19:30;;;;;;;15.90;15.20;;;27.30;94.40;;;;;;5013028;28;20509;-72
2021/07/28 12:22:01;;;;;;;14.50;13.80;;;28.30;93.30;;;;;;5013080;28;20453;-72
2021/07/28 12:24:39;;;;;;;17.10;16.10;;;28.70;92.50;;;;;;5013171;28;20449;-72
2021/07/28 12:27:37;;;;;;;15.80;14.97;;;28.50;91.60;;;;;;5013269;28;20492;-72
2021/07/28 12:30:06;;;;;;;15.97;14.63;;;27.90;93.20;;;;;;5013263;28;20449;-72
2021/07/28 12:32:37;;;;;;;16.40;15.50;;;27.90;92.70;;;;;;5013324;28;20445;-71
2021/07/28 12:35:06;;;;;;;16.00;15.00;;;27.30;93.20;;;;;;5013297;28;20521;-72
2021/07/28 12:37:33;;;;;;;16.20;15.40;;;26.60;94.70;;;;;;5013357;28;20477;-72
2021/07/28 12:40:00;;;;;;;15.53;14.73;;;27.40;94.50;;;;;;5012913;28;20934;-72
2021/07/28 12:42:27;;;;;;;17.00;15.70;;;28.30;92.20;;;;;;5013032;28;20454;-72
2021/07/28 12:44:55;;;;;;;16.27;15.47;;;28.90;92.00;;;;;;5013104;28;20512;-72
2021/07/28 12:47:21;;;;;;;16.67;15.70;;;29.80;90.40;;;;;;5012971;28;20504;-72
2021/07/28 12:49:48;;;;;;;16.10;15.40;;;28.90;90.80;;;;;;5013088;28;20457;-73
2021/07/28 12:52:16;;;;;;;16.10;15.20;;;28.00;91.70;;;;;;5012805;28;20469;-73
2021/07/28 12:54:42;;;;;;;16.57;15.67;;;27.20;92.90;;;;;;5012762;28;20453;-72
2021/07/28 12:57:09;;;;;;;16.40;15.60;;;27.30;93.10;;;;;;5012704;28;20454;-72
2021/07/28 12:59:36;;;;;;;16.03;15.13;;;27.70;92.30;;;;;;5012580;28;20442;-72
2021/07/28 13:02:04;;;;;;;16.83;16.00;;;27.70;92.10;;;;;;5012803;28;20458;-72
2021/07/28 13:04:32;;;;;;;16.83;15.83;;;28.80;91.10;;;;;;5011448;28;20457;-72
2021/07/28 13:07:07;;;;;;;16.57;15.73;;;29.90;90.30;;;;;;5012355;28;20559;-72
2021/07/28 13:09:34;;;;;;;16.10;15.40;;;30.60;86.20;;;;;;5012668;28;20512;-73
2021/07/28 13:12:01;;;;;;;15.90;15.20;;;30.70;85.40;;;;;;5012529;28;20453;-72
2021/07/28 13:14:28;;;;;;;15.60;14.90;;;30.20;87.20;;;;;;5012178;28;21101;-71
2021/07/28 13:16:54;;;;;;;17.23;16.43;;;30.20;86.30;;;;;;5012140;28;20461;-72
2021/07/28 13:19:22;;;;;;;15.77;15.17;;;30.40;85.20;;;;;;5011966;28;20496;-71
2021/07/28 13:21:49;;;;;;;17.13;16.10;;;30.40;86.00;;;;;;5012418;28;20450;-71
2021/07/28 13:24:17;;;;;;;17.00;16.20;;;30.80;85.00;;;;;;5012257;28;20446;-71
2021/07/28 13:26:44;;;;;;;16.50;15.70;;;30.90;84.80;;;;;;5012087;28;20525;-71
2021/07/28 13:29:11;;;;;;;15.83;15.07;;;31.80;82.10;;;;;;5012039;28;20450;-71
2021/07/28 13:31:38;;;;;;;16.50;15.60;;;31.50;80.70;;;;;;5012042;28;20449;-71
2021/07/28 13:34:05;;;;;;;16.13;15.53;;;30.40;83.20;;;;;;5012195;28;20481;-71
2021/07/28 13:36:34;;;;;;;16.10;15.40;;;30.40;83.20;;;;;;5012219;28;20484;-72
2021/07/28 13:39:03;;;;;;;16.00;15.30;;;29.90;85.70;;;;;;5012102;28;20957;-71
2021/07/28 13:41:30;;;;;;;17.20;16.20;;;29.70;85.50;;;;;;5011961;28;20454;-72
2021/07/28 13:43:57;;;;;;;16.20;15.43;;;29.30;86.40;;;;;;5011853;28;20548;-72
2021/07/28 13:46:23;;;;;;;16.40;15.70;;;29.30;85.70;;;;;;5011613;28;20493;-72
2021/07/28 13:48:50;;;;;;;16.17;15.40;;;28.80;86.80;;;;;;5011939;28;20454;-72
2021/07/28 13:51:17;;;;;;;16.07;15.37;;;29.00;88.00;;;;;;5012097;28;20453;-72
2021/07/28 13:53:45;;;;;;;17.00;15.90;;;29.70;86.50;;;;;;5011626;28;20454;-72
2021/07/28 13:56:12;;;;;;;17.40;16.43;;;30.10;84.50;;;;;;5011512;28;20454;-72
2021/07/28 13:58:39;;;;;;;16.83;15.80;;;29.90;83.50;;;;;;5011573;28;20462;-71
2021/07/28 14:01:05;;;;;;;16.40;15.57;;;30.10;84.80;;;;;;5011817;28;20861;-72
2021/07/28 14:03:33;;;;;;;17.00;16.10;;;29.90;82.90;;;;;;5011315;28;20474;-73
2021/07/28 14:06:00;;;;;;;16.40;15.60;;;29.30;84.00;;;;;;5011113;28;20454;-72
2021/07/28 14:08:26;;;;;;;17.67;16.53;;;28.80;87.30;;;;;;5011360;28;20975;-72
2021/07/28 14:10:54;;;;;;;17.13;16.23;;;29.00;85.90;;;;;;5011328;28;20458;-71
2021/07/28 14:13:21;;;;;;;17.07;16.20;;;28.00;89.10;;;;;;5011444;28;20457;-72
2021/07/28 14:15:48;;;;;;;17.77;16.87;;;28.60;88.50;;;;;;5011087;28;20454;-72
2021/07/28 14:18:16;;;;;;;16.40;15.70;;;28.80;87.10;;;;;;5010925;28;20840;-71
2021/07/28 14:20:43;;;;;;;15.80;14.90;;;28.20;87.10;;;;;;5010732;28;20508;-71
2021/07/28 14:23:09;;;;;;;16.63;15.83;;;27.90;88.60;;;;;;5011093;28;20461;-71
2021/07/28 14:25:36;;;;;;;16.33;15.47;;;27.80;88.80;;;;;;5011146;28;20465;-72
2021/07/28 14:28:05;;;;;;;15.90;15.10;;;28.10;88.50;;;;;;5011089;28;20489;-71
2021/07/28 14:30:32;;;;;;;16.07;15.30;;;28.10;88.60;;;;;;5010876;28;20516;-71
2021/07/28 14:32:58;;;;;;;15.80;15.10;;;28.20;87.20;;;;;;5010819;28;20874;-71
2021/07/28 14:35:25;;;;;;;15.80;15.10;;;28.20;88.20;;;;;;5010986;28;20454;-72
2021/07/28 14:37:52;;;;;;;16.20;15.50;;;28.10;87.10;;;;;;5010992;28;20449;-71
2021/07/28 14:40:19;;;;;;;16.17;15.43;;;28.40;88.50;;;;;;5011038;28;20458;-72
2021/07/28 14:42:45;;;;;;;16.40;15.60;;;28.60;87.90;;;;;;5010763;28;20452;-71
2021/07/28 14:45:13;;;;;;;17.03;16.23;;;28.30;87.10;;;;;;5010760;28;20836;-72
2021/07/28 14:47:42;;;;;;;16.40;15.70;;;27.80;88.40;;;;;;5010195;28;20497;-72
2021/07/28 14:50:11;;;;;;;16.50;15.80;;;27.70;89.10;;;;;;5010673;28;20573;-71
2021/07/28 14:52:38;;;;;;;15.30;14.60;;;27.60;90.10;;;;;;5010635;28;20611;-71
2021/07/28 14:55:05;;;;;;;16.10;15.40;;;27.70;90.10;;;;;;5010854;28;20457;-72